sensor_id;sensor_type;location;lat;lon;timestamp;temperature;humidity
18450;DHT22;9354;50.194;7.690;2023-08-17T00:02:05;19.10;99.90
18450;DHT22;9354;50.194;7.690;2023-08-17T00:04:32;19.10;99.90
18450;DHT22;9354;50.194;7.690;2023-08-17T00:07:01;19.10;99.90
18450;DHT22;9354;50.194;7.690;2023-08-17T00:09:29;19.10;99.90
18450;DHT22;9354;50.194;7.690;2023-08-17T00:11:57;19.10;99.90
18450;DHT22;9354;50.194;7.690;2023-08-17T00:14:25;19.10;99.90
18450;DHT22;9354;50.194;7.690;2023-08-17T00:16:52;19.10;99.90
18450;DHT22;9354;50.194;7.690;2023-08-17T00:19:20;19.20;99.90
18450;DHT22;9354;50.194;7.690;2023-08-17T00:21:47;19.10;99.90
18450;DHT22;9354;50.194;7.690;2023-08-17T00:24:14;19.10;99.90
18450;DHT22;9354;50.194;7.690;2023-08-17T00:26:42;19.10;99.90
18450;DHT22;9354;50.194;7.690;2023-08-17T00:29:11;19.10;99.90
18450;DHT22;9354;50.194;7.690;2023-08-17T00:31:38;19.10;99.90
18450;DHT22;9354;50.194;7.690;2023-08-17T00:34:05;19.10;99.90
18450;DHT22;9354;50.194;7.690;2023-08-17T00:36:33;19.00;99.90
18450;DHT22;9354;50.194;7.690;2023-08-17T00:39:01;19.10;99.90
18450;DHT22;9354;50.194;7.690;2023-08-17T00:41:28;19.10;99.90
18450;DHT22;9354;50.194;7.690;2023-08-17T00:43:56;19.10;99.90
18450;DHT22;9354;50.194;7.690;2023-08-17T00:46:25;19.10;99.90
18450;DHT22;9354;50.194;7.690;2023-08-17T00:48:54;19.10;99.90
18450;DHT22;9354;50.194;7.690;2023-08-17T00:51:22;19.10;99.90
18450;DHT22;9354;50.194;7.690;2023-08-17T00:53:50;19.10;99.90
18450;DHT22;9354;50.194;7.690;2023-08-17T00:56:18;19.10;99.90
18450;DHT22;9354;50.194;7.690;2023-08-17T00:58:46;19.10;99.90
18450;DHT22;9354;50.194;7.690;2023-08-17T01:01:14;19.10;99.90
18450;DHT22;9354;50.194;7.690;2023-08-17T01:03:42;19.10;99.90
18450;DHT22;9354;50.194;7.690;2023-08-17T01:06:10;19.20;99.90
18450;DHT22;9354;50.194;7.690;2023-08-17T01:08:38;19.20;99.90
18450;DHT22;9354;50.194;7.690;2023-08-17T01:11:20;19.20;99.90
18450;DHT22;9354;50.194;7.690;2023-08-17T01:13:55;19.10;99.90
18450;DHT22;9354;50.194;7.690;2023-08-17T01:16:27;19.10;99.90
18450;DHT22;9354;50.194;7.690;2023-08-17T01:18:57;19.10;99.90
18450;DHT22;9354;50.194;7.690;2023-08-17T01:21:32;19.10;99.90
18450;DHT22;9354;50.194;7.690;2023-08-17T01:24:05;19.10;99.90
18450;DHT22;9354;50.194;7.690;2023-08-17T01:26:32;19.10;99.90
18450;DHT22;9354;50.194;7.690;2023-08-17T01:29:00;19.10;99.90
18450;DHT22;9354;50.194;7.690;2023-08-17T01:31:30;19.10;99.90
18450;DHT22;9354;50.194;7.690;2023-08-17T01:34:03;19.10;99.90
18450;DHT22;9354;50.194;7.690;2023-08-17T01:36:35;19.10;99.90
18450;DHT22;9354;50.194;7.690;2023-08-17T01:39:05;19.10;99.90
18450;DHT22;9354;50.194;7.690;2023-08-17T01:41:35;19.10;99.90
18450;DHT22;9354;50.194;7.690;2023-08-17T01:44:03;19.10;99.90
18450;DHT22;9354;50.194;7.690;2023-08-17T01:46:32;19.10;99.90
18450;DHT22;9354;50.194;7.690;2023-08-17T01:49:00;19.10;99.90
18450;DHT22;9354;50.194;7.690;2023-08-17T01:51:27;19.10;99.90
18450;DHT22;9354;50.194;7.690;2023-08-17T01:53:54;19.10;99.90
18450;DHT22;9354;50.194;7.690;2023-08-17T01:56:26;19.10;99.90
18450;DHT22;9354;50.194;7.690;2023-08-17T01:58:53;19.00;99.90
18450;DHT22;9354;50.194;7.690;2023-08-17T02:01:21;19.00;99.90
18450;DHT22;9354;50.194;7.690;2023-08-17T02:03:48;19.00;99.90
18450;DHT22;9354;50.194;7.690;2023-08-17T02:06:16;19.00;99.90
18450;DHT22;9354;50.194;7.690;2023-08-17T02:08:45;19.00;99.90
18450;DHT22;9354;50.194;7.690;2023-08-17T02:11:13;19.00;99.90
18450;DHT22;9354;50.194;7.690;2023-08-17T02:13:41;19.10;99.90
18450;DHT22;9354;50.194;7.690;2023-08-17T02:16:09;19.00;99.90
18450;DHT22;9354;50.194;7.690;2023-08-17T02:18:37;19.10;99.90
18450;DHT22;9354;50.194;7.690;2023-08-17T02:21:04;19.00;99.90
18450;DHT22;9354;50.194;7.690;2023-08-17T02:23:31;19.10;99.90
18450;DHT22;9354;50.194;7.690;2023-08-17T02:26:00;19.00;99.90
18450;DHT22;9354;50.194;7.690;2023-08-17T02:28:27;19.00;99.90
18450;DHT22;9354;50.194;7.690;2023-08-17T02:30:57;19.00;99.90
18450;DHT22;9354;50.194;7.690;2023-08-17T02:33:25;19.00;99.90
18450;DHT22;9354;50.194;7.690;2023-08-17T02:35:52;18.90;99.90
18450;DHT22;9354;50.194;7.690;2023-08-17T02:38:20;18.90;99.90
18450;DHT22;9354;50.194;7.690;2023-08-17T02:40:49;19.00;99.90
18450;DHT22;9354;50.194;7.690;2023-08-17T02:43:17;19.00;99.90
18450;DHT22;9354;50.194;7.690;2023-08-17T02:45:45;19.00;99.90
18450;DHT22;9354;50.194;7.690;2023-08-17T02:48:14;19.00;99.90
18450;DHT22;9354;50.194;7.690;2023-08-17T02:50:41;19.00;99.90
18450;DHT22;9354;50.194;7.690;2023-08-17T02:53:09;19.00;99.90
18450;DHT22;9354;50.194;7.690;2023-08-17T02:55:36;19.00;99.90
18450;DHT22;9354;50.194;7.690;2023-08-17T02:58:04;18.90;99.90
18450;DHT22;9354;50.194;7.690;2023-08-17T03:00:32;18.90;99.90
18450;DHT22;9354;50.194;7.690;2023-08-17T03:03:00;18.90;99.90
18450;DHT22;9354;50.194;7.690;2023-08-17T03:05:28;18.90;99.90
18450;DHT22;9354;50.194;7.690;2023-08-17T03:07:56;18.80;99.90
18450;DHT22;9354;50.194;7.690;2023-08-17T03:10:23;18.80;99.90
18450;DHT22;9354;50.194;7.690;2023-08-17T03:12:51;18.80;99.90
18450;DHT22;9354;50.194;7.690;2023-08-17T03:15:18;18.80;99.90
18450;DHT22;9354;50.194;7.690;2023-08-17T03:17:45;18.80;99.90
18450;DHT22;9354;50.194;7.690;2023-08-17T03:20:13;18.80;99.90
18450;DHT22;9354;50.194;7.690;2023-08-17T03:22:41;18.80;99.90
18450;DHT22;9354;50.194;7.690;2023-08-17T03:25:09;18.80;99.90
18450;DHT22;9354;50.194;7.690;2023-08-17T03:27:36;18.70;99.90
18450;DHT22;9354;50.194;7.690;2023-08-17T03:30:06;18.70;99.90
18450;DHT22;9354;50.194;7.690;2023-08-17T03:32:34;18.70;99.90
18450;DHT22;9354;50.194;7.690;2023-08-17T03:35:01;18.70;99.90
18450;DHT22;9354;50.194;7.690;2023-08-17T03:37:28;18.70;99.90
18450;DHT22;9354;50.194;7.690;2023-08-17T03:39:57;18.70;99.90
18450;DHT22;9354;50.194;7.690;2023-08-17T03:42:26;18.80;99.90
18450;DHT22;9354;50.194;7.690;2023-08-17T03:44:53;18.80;99.90
18450;DHT22;9354;50.194;7.690;2023-08-17T03:47:21;18.80;99.90
18450;DHT22;9354;50.194;7.690;2023-08-17T03:49:49;18.90;99.90
18450;DHT22;9354;50.194;7.690;2023-08-17T03:52:16;18.90;99.90
18450;DHT22;9354;50.194;7.690;2023-08-17T03:54:43;18.90;99.90
18450;DHT22;9354;50.194;7.690;2023-08-17T03:57:12;18.90;99.90
18450;DHT22;9354;50.194;7.690;2023-08-17T03:59:41;18.90;99.90
18450;DHT22;9354;50.194;7.690;2023-08-17T04:02:08;18.80;99.90
18450;DHT22;9354;50.194;7.690;2023-08-17T04:04:36;18.80;99.90
18450;DHT22;9354;50.194;7.690;2023-08-17T04:07:04;18.80;99.90
18450;DHT22;9354;50.194;7.690;2023-08-17T04:09:32;18.70;99.90
18450;DHT22;9354;50.194;7.690;2023-08-17T04:12:00;18.70;99.90
18450;DHT22;9354;50.194;7.690;2023-08-17T04:14:31;18.60;99.90
18450;DHT22;9354;50.194;7.690;2023-08-17T04:16:58;18.60;99.90
18450;DHT22;9354;50.194;7.690;2023-08-17T04:19:26;18.60;99.90
18450;DHT22;9354;50.194;7.690;2023-08-17T04:21:53;18.50;99.90
18450;DHT22;9354;50.194;7.690;2023-08-17T04:24:22;18.50;99.90
18450;DHT22;9354;50.194;7.690;2023-08-17T04:26:50;18.50;99.90
18450;DHT22;9354;50.194;7.690;2023-08-17T04:29:17;18.50;99.90
18450;DHT22;9354;50.194;7.690;2023-08-17T04:31:46;18.50;99.90
18450;DHT22;9354;50.194;7.690;2023-08-17T04:34:13;18.50;99.90
18450;DHT22;9354;50.194;7.690;2023-08-17T04:36:41;18.60;99.90
18450;DHT22;9354;50.194;7.690;2023-08-17T04:39:08;18.60;99.90
18450;DHT22;9354;50.194;7.690;2023-08-17T04:41:36;18.60;99.90
18450;DHT22;9354;50.194;7.690;2023-08-17T04:44:04;18.60;99.90
18450;DHT22;9354;50.194;7.690;2023-08-17T04:46:31;18.70;99.90
18450;DHT22;9354;50.194;7.690;2023-08-17T04:49:00;18.70;99.90
18450;DHT22;9354;50.194;7.690;2023-08-17T04:51:27;18.70;99.90
18450;DHT22;9354;50.194;7.690;2023-08-17T04:53:55;18.70;99.90
18450;DHT22;9354;50.194;7.690;2023-08-17T04:56:22;18.80;99.90
18450;DHT22;9354;50.194;7.690;2023-08-17T04:58:50;18.80;99.90
18450;DHT22;9354;50.194;7.690;2023-08-17T05:01:17;18.80;99.90
18450;DHT22;9354;50.194;7.690;2023-08-17T05:03:46;18.80;99.90
18450;DHT22;9354;50.194;7.690;2023-08-17T05:06:14;18.80;99.90
18450;DHT22;9354;50.194;7.690;2023-08-17T05:08:42;18.80;99.90
18450;DHT22;9354;50.194;7.690;2023-08-17T05:11:09;18.80;99.90
18450;DHT22;9354;50.194;7.690;2023-08-17T05:13:36;18.80;99.90
18450;DHT22;9354;50.194;7.690;2023-08-17T05:16:04;18.90;99.90
18450;DHT22;9354;50.194;7.690;2023-08-17T05:18:32;18.90;99.90
18450;DHT22;9354;50.194;7.690;2023-08-17T05:20:59;19.00;99.90
18450;DHT22;9354;50.194;7.690;2023-08-17T05:23:28;19.00;99.90
18450;DHT22;9354;50.194;7.690;2023-08-17T05:25:55;19.00;99.90
18450;DHT22;9354;50.194;7.690;2023-08-17T05:28:23;19.00;99.90
18450;DHT22;9354;50.194;7.690;2023-08-17T05:30:50;19.00;99.90
18450;DHT22;9354;50.194;7.690;2023-08-17T05:33:19;19.00;99.90
18450;DHT22;9354;50.194;7.690;2023-08-17T05:35:48;19.00;99.90
18450;DHT22;9354;50.194;7.690;2023-08-17T05:38:19;19.00;99.90
18450;DHT22;9354;50.194;7.690;2023-08-17T05:40:54;19.00;99.90
18450;DHT22;9354;50.194;7.690;2023-08-17T05:43:22;18.90;99.90
18450;DHT22;9354;50.194;7.690;2023-08-17T05:45:49;18.80;99.90
18450;DHT22;9354;50.194;7.690;2023-08-17T05:48:19;18.80;99.90
18450;DHT22;9354;50.194;7.690;2023-08-17T05:50:47;18.80;99.90
18450;DHT22;9354;50.194;7.690;2023-08-17T05:53:15;18.80;99.90
18450;DHT22;9354;50.194;7.690;2023-08-17T05:55:42;18.80;99.90
18450;DHT22;9354;50.194;7.690;2023-08-17T05:58:11;18.90;99.90
18450;DHT22;9354;50.194;7.690;2023-08-17T06:00:38;18.90;99.90
18450;DHT22;9354;50.194;7.690;2023-08-17T06:03:06;18.80;99.90
18450;DHT22;9354;50.194;7.690;2023-08-17T06:05:33;18.80;99.90
18450;DHT22;9354;50.194;7.690;2023-08-17T06:08:00;18.80;99.90
18450;DHT22;9354;50.194;7.690;2023-08-17T06:10:28;18.90;99.90
18450;DHT22;9354;50.194;7.690;2023-08-17T06:12:56;18.90;99.90
18450;DHT22;9354;50.194;7.690;2023-08-17T06:15:25;19.00;99.90
18450;DHT22;9354;50.194;7.690;2023-08-17T06:17:52;19.10;99.90
18450;DHT22;9354;50.194;7.690;2023-08-17T06:20:20;19.20;99.90
18450;DHT22;9354;50.194;7.690;2023-08-17T06:22:48;19.20;99.90
18450;DHT22;9354;50.194;7.690;2023-08-17T06:25:16;19.30;99.90
18450;DHT22;9354;50.194;7.690;2023-08-17T06:27:43;19.30;99.90
18450;DHT22;9354;50.194;7.690;2023-08-17T06:30:11;19.40;99.90
18450;DHT22;9354;50.194;7.690;2023-08-17T06:32:40;19.40;99.90
18450;DHT22;9354;50.194;7.690;2023-08-17T06:35:08;19.40;99.90
18450;DHT22;9354;50.194;7.690;2023-08-17T06:37:36;19.40;99.90
18450;DHT22;9354;50.194;7.690;2023-08-17T06:40:04;19.40;99.90
18450;DHT22;9354;50.194;7.690;2023-08-17T06:42:33;19.50;99.90
18450;DHT22;9354;50.194;7.690;2023-08-17T06:45:00;19.60;99.90
18450;DHT22;9354;50.194;7.690;2023-08-17T06:47:27;19.60;99.90
18450;DHT22;9354;50.194;7.690;2023-08-17T06:49:56;19.60;99.90
18450;DHT22;9354;50.194;7.690;2023-08-17T06:52:24;19.60;99.90
18450;DHT22;9354;50.194;7.690;2023-08-17T06:54:51;19.60;99.90
18450;DHT22;9354;50.194;7.690;2023-08-17T06:57:18;19.60;99.90
18450;DHT22;9354;50.194;7.690;2023-08-17T06:59:47;19.60;99.90
18450;DHT22;9354;50.194;7.690;2023-08-17T07:02:15;19.50;99.90
18450;DHT22;9354;50.194;7.690;2023-08-17T07:04:42;19.50;99.90
18450;DHT22;9354;50.194;7.690;2023-08-17T07:07:11;19.50;99.90
18450;DHT22;9354;50.194;7.690;2023-08-17T07:09:40;19.50;99.90
18450;DHT22;9354;50.194;7.690;2023-08-17T07:12:07;19.50;99.90
18450;DHT22;9354;50.194;7.690;2023-08-17T07:14:35;19.40;99.90
18450;DHT22;9354;50.194;7.690;2023-08-17T07:17:03;19.50;99.90
18450;DHT22;9354;50.194;7.690;2023-08-17T07:19:30;19.50;99.90
18450;DHT22;9354;50.194;7.690;2023-08-17T07:21:58;19.50;99.90
18450;DHT22;9354;50.194;7.690;2023-08-17T07:24:26;19.60;99.90
18450;DHT22;9354;50.194;7.690;2023-08-17T07:26:54;19.60;99.90
18450;DHT22;9354;50.194;7.690;2023-08-17T07:29:21;19.60;99.90
18450;DHT22;9354;50.194;7.690;2023-08-17T07:31:49;19.70;99.90
18450;DHT22;9354;50.194;7.690;2023-08-17T07:34:16;19.70;99.90
18450;DHT22;9354;50.194;7.690;2023-08-17T07:36:43;19.70;99.90
18450;DHT22;9354;50.194;7.690;2023-08-17T07:39:11;19.70;99.90
18450;DHT22;9354;50.194;7.690;2023-08-17T07:41:40;19.70;99.90
18450;DHT22;9354;50.194;7.690;2023-08-17T07:44:07;19.70;99.90
18450;DHT22;9354;50.194;7.690;2023-08-17T07:46:35;19.60;99.90
18450;DHT22;9354;50.194;7.690;2023-08-17T07:49:02;19.60;99.90
18450;DHT22;9354;50.194;7.690;2023-08-17T07:51:30;19.50;99.90
18450;DHT22;9354;50.194;7.690;2023-08-17T07:53:59;19.40;99.90
18450;DHT22;9354;50.194;7.690;2023-08-17T07:56:27;19.40;99.90
18450;DHT22;9354;50.194;7.690;2023-08-17T07:58:55;19.30;99.90
18450;DHT22;9354;50.194;7.690;2023-08-17T08:01:23;19.30;99.90
18450;DHT22;9354;50.194;7.690;2023-08-17T08:03:50;19.40;99.90
18450;DHT22;9354;50.194;7.690;2023-08-17T08:06:17;19.40;99.90
18450;DHT22;9354;50.194;7.690;2023-08-17T08:08:46;19.60;99.90
18450;DHT22;9354;50.194;7.690;2023-08-17T08:11:13;19.60;99.90
18450;DHT22;9354;50.194;7.690;2023-08-17T08:13:41;19.70;99.90
18450;DHT22;9354;50.194;7.690;2023-08-17T08:16:10;19.80;99.90
18450;DHT22;9354;50.194;7.690;2023-08-17T08:18:37;19.90;99.90
18450;DHT22;9354;50.194;7.690;2023-08-17T08:21:04;20.00;99.90
18450;DHT22;9354;50.194;7.690;2023-08-17T08:23:32;20.20;99.90
18450;DHT22;9354;50.194;7.690;2023-08-17T08:25:59;20.30;99.90
18450;DHT22;9354;50.194;7.690;2023-08-17T08:28:26;20.30;99.90
18450;DHT22;9354;50.194;7.690;2023-08-17T08:30:54;20.40;99.90
18450;DHT22;9354;50.194;7.690;2023-08-17T08:33:23;20.30;99.90
18450;DHT22;9354;50.194;7.690;2023-08-17T08:35:50;20.40;99.90
18450;DHT22;9354;50.194;7.690;2023-08-17T08:38:18;20.40;99.90
18450;DHT22;9354;50.194;7.690;2023-08-17T08:40:47;20.40;99.90
18450;DHT22;9354;50.194;7.690;2023-08-17T08:43:14;20.40;99.90
18450;DHT22;9354;50.194;7.690;2023-08-17T08:45:42;20.40;99.90
18450;DHT22;9354;50.194;7.690;2023-08-17T08:48:11;20.40;99.90
18450;DHT22;9354;50.194;7.690;2023-08-17T08:50:40;20.50;99.90
18450;DHT22;9354;50.194;7.690;2023-08-17T08:53:13;20.60;99.90
18450;DHT22;9354;50.194;7.690;2023-08-17T08:55:47;20.60;99.90
18450;DHT22;9354;50.194;7.690;2023-08-17T08:58:16;20.60;99.90
18450;DHT22;9354;50.194;7.690;2023-08-17T09:00:47;20.70;99.90
18450;DHT22;9354;50.194;7.690;2023-08-17T09:03:15;20.70;99.90
18450;DHT22;9354;50.194;7.690;2023-08-17T09:05:47;20.80;99.90
18450;DHT22;9354;50.194;7.690;2023-08-17T09:08:17;20.90;99.90
18450;DHT22;9354;50.194;7.690;2023-08-17T09:10:45;20.90;99.90
18450;DHT22;9354;50.194;7.690;2023-08-17T09:13:13;21.00;99.90
18450;DHT22;9354;50.194;7.690;2023-08-17T09:15:41;21.10;99.90
18450;DHT22;9354;50.194;7.690;2023-08-17T09:18:08;21.20;99.90
18450;DHT22;9354;50.194;7.690;2023-08-17T09:20:37;21.40;99.90
18450;DHT22;9354;50.194;7.690;2023-08-17T09:23:13;21.70;99.90
18450;DHT22;9354;50.194;7.690;2023-08-17T09:25:41;21.80;99.90
18450;DHT22;9354;50.194;7.690;2023-08-17T09:28:10;21.90;99.90
18450;DHT22;9354;50.194;7.690;2023-08-17T09:30:52;22.10;99.90
18450;DHT22;9354;50.194;7.690;2023-08-17T09:33:20;22.40;99.90
18450;DHT22;9354;50.194;7.690;2023-08-17T09:35:49;22.60;99.90
18450;DHT22;9354;50.194;7.690;2023-08-17T09:38:17;22.60;99.90
18450;DHT22;9354;50.194;7.690;2023-08-17T09:40:45;22.60;99.90
18450;DHT22;9354;50.194;7.690;2023-08-17T09:43:14;22.60;99.90
18450;DHT22;9354;50.194;7.690;2023-08-17T09:45:43;22.50;99.90
18450;DHT22;9354;50.194;7.690;2023-08-17T09:48:14;22.50;99.90
18450;DHT22;9354;50.194;7.690;2023-08-17T09:50:42;22.60;99.90
18450;DHT22;9354;50.194;7.690;2023-08-17T09:53:12;22.60;99.90
18450;DHT22;9354;50.194;7.690;2023-08-17T09:55:42;22.60;99.90
18450;DHT22;9354;50.194;7.690;2023-08-17T09:58:10;22.50;99.90
18450;DHT22;9354;50.194;7.690;2023-08-17T10:00:44;22.50;99.90
18450;DHT22;9354;50.194;7.690;2023-08-17T10:03:14;22.60;99.90
18450;DHT22;9354;50.194;7.690;2023-08-17T10:05:44;22.70;99.90
18450;DHT22;9354;50.194;7.690;2023-08-17T10:08:12;22.80;99.90
18450;DHT22;9354;50.194;7.690;2023-08-17T10:10:44;22.90;99.90
18450;DHT22;9354;50.194;7.690;2023-08-17T10:13:16;22.90;99.90
18450;DHT22;9354;50.194;7.690;2023-08-17T10:15:48;23.00;99.90
18450;DHT22;9354;50.194;7.690;2023-08-17T10:18:24;23.10;99.90
18450;DHT22;9354;50.194;7.690;2023-08-17T10:20:59;23.30;99.90
18450;DHT22;9354;50.194;7.690;2023-08-17T10:23:31;23.50;99.90
18450;DHT22;9354;50.194;7.690;2023-08-17T10:26:01;23.60;99.90
18450;DHT22;9354;50.194;7.690;2023-08-17T10:28:31;23.70;99.90
18450;DHT22;9354;50.194;7.690;2023-08-17T10:30:59;23.70;99.90
18450;DHT22;9354;50.194;7.690;2023-08-17T10:33:27;24.00;99.90
18450;DHT22;9354;50.194;7.690;2023-08-17T10:35:56;24.30;99.90
18450;DHT22;9354;50.194;7.690;2023-08-17T10:38:26;24.60;99.90
18450;DHT22;9354;50.194;7.690;2023-08-17T10:41:11;24.80;99.90
18450;DHT22;9354;50.194;7.690;2023-08-17T10:43:55;25.00;99.90
18450;DHT22;9354;50.194;7.690;2023-08-17T10:46:32;24.90;99.90
18450;DHT22;9354;50.194;7.690;2023-08-17T10:49:04;24.80;99.90
18450;DHT22;9354;50.194;7.690;2023-08-17T10:51:33;24.70;99.90
18450;DHT22;9354;50.194;7.690;2023-08-17T10:54:02;24.60;99.90
18450;DHT22;9354;50.194;7.690;2023-08-17T10:56:32;24.70;99.90
18450;DHT22;9354;50.194;7.690;2023-08-17T10:59:00;24.60;99.90
18450;DHT22;9354;50.194;7.690;2023-08-17T11:01:34;24.60;99.90
18450;DHT22;9354;50.194;7.690;2023-08-17T11:04:15;24.50;99.90
18450;DHT22;9354;50.194;7.690;2023-08-17T11:06:44;24.30;99.90
18450;DHT22;9354;50.194;7.690;2023-08-17T11:09:11;24.20;99.90
18450;DHT22;9354;50.194;7.690;2023-08-17T11:11:40;24.00;99.90
18450;DHT22;9354;50.194;7.690;2023-08-17T11:14:08;23.80;99.90
18450;DHT22;9354;50.194;7.690;2023-08-17T11:16:36;23.70;99.90
18450;DHT22;9354;50.194;7.690;2023-08-17T11:19:03;23.70;99.90
18450;DHT22;9354;50.194;7.690;2023-08-17T11:21:30;23.60;99.90
18450;DHT22;9354;50.194;7.690;2023-08-17T11:23:58;23.50;99.90
18450;DHT22;9354;50.194;7.690;2023-08-17T11:26:26;23.50;99.90
18450;DHT22;9354;50.194;7.690;2023-08-17T11:28:55;23.40;99.90
18450;DHT22;9354;50.194;7.690;2023-08-17T11:31:23;23.40;99.90
18450;DHT22;9354;50.194;7.690;2023-08-17T11:33:52;23.40;99.90
18450;DHT22;9354;50.194;7.690;2023-08-17T11:36:19;23.40;99.90
18450;DHT22;9354;50.194;7.690;2023-08-17T11:38:49;23.40;99.90
18450;DHT22;9354;50.194;7.690;2023-08-17T11:41:17;23.60;99.90
18450;DHT22;9354;50.194;7.690;2023-08-17T11:43:46;23.70;99.90
18450;DHT22;9354;50.194;7.690;2023-08-17T11:46:15;23.80;99.90
18450;DHT22;9354;50.194;7.690;2023-08-17T11:48:43;23.90;99.90
18450;DHT22;9354;50.194;7.690;2023-08-17T11:51:10;24.00;99.90
18450;DHT22;9354;50.194;7.690;2023-08-17T11:53:39;24.20;99.90
18450;DHT22;9354;50.194;7.690;2023-08-17T11:56:07;24.50;99.90
18450;DHT22;9354;50.194;7.690;2023-08-17T11:58:41;24.80;99.90
18450;DHT22;9354;50.194;7.690;2023-08-17T12:01:10;25.20;99.90
18450;DHT22;9354;50.194;7.690;2023-08-17T12:03:40;25.50;99.90
18450;DHT22;9354;50.194;7.690;2023-08-17T12:06:09;25.90;99.90
18450;DHT22;9354;50.194;7.690;2023-08-17T12:08:39;26.20;99.90
18450;DHT22;9354;50.194;7.690;2023-08-17T12:11:08;26.40;99.90
18450;DHT22;9354;50.194;7.690;2023-08-17T12:13:35;26.60;99.90
18450;DHT22;9354;50.194;7.690;2023-08-17T12:16:03;26.50;99.90
18450;DHT22;9354;50.194;7.690;2023-08-17T12:18:32;26.50;99.90
18450;DHT22;9354;50.194;7.690;2023-08-17T12:21:01;26.50;99.90
18450;DHT22;9354;50.194;7.690;2023-08-17T12:23:32;26.50;99.90
18450;DHT22;9354;50.194;7.690;2023-08-17T12:26:00;26.60;99.90
18450;DHT22;9354;50.194;7.690;2023-08-17T12:28:27;26.60;99.90
18450;DHT22;9354;50.194;7.690;2023-08-17T12:30:59;26.70;99.90
18450;DHT22;9354;50.194;7.690;2023-08-17T12:33:27;26.80;99.90
18450;DHT22;9354;50.194;7.690;2023-08-17T12:35:55;27.00;99.90
18450;DHT22;9354;50.194;7.690;2023-08-17T12:38:25;27.10;99.90
18450;DHT22;9354;50.194;7.690;2023-08-17T12:40:52;27.20;99.90
18450;DHT22;9354;50.194;7.690;2023-08-17T12:43:20;27.20;99.90
18450;DHT22;9354;50.194;7.690;2023-08-17T12:45:47;27.00;99.90
18450;DHT22;9354;50.194;7.690;2023-08-17T12:48:15;26.70;99.90
18450;DHT22;9354;50.194;7.690;2023-08-17T12:50:43;26.40;99.90
18450;DHT22;9354;50.194;7.690;2023-08-17T12:53:10;26.30;99.90
18450;DHT22;9354;50.194;7.690;2023-08-17T12:55:39;26.20;99.90
18450;DHT22;9354;50.194;7.690;2023-08-17T12:58:08;26.20;99.90
18450;DHT22;9354;50.194;7.690;2023-08-17T13:00:35;26.20;99.90
18450;DHT22;9354;50.194;7.690;2023-08-17T13:03:03;26.20;99.90
18450;DHT22;9354;50.194;7.690;2023-08-17T13:05:32;26.20;99.90
18450;DHT22;9354;50.194;7.690;2023-08-17T13:07:59;26.10;99.90
18450;DHT22;9354;50.194;7.690;2023-08-17T13:10:27;26.00;99.90
18450;DHT22;9354;50.194;7.690;2023-08-17T13:12:55;25.90;99.90
18450;DHT22;9354;50.194;7.690;2023-08-17T13:15:25;25.70;99.90
18450;DHT22;9354;50.194;7.690;2023-08-17T13:17:52;25.50;99.90
18450;DHT22;9354;50.194;7.690;2023-08-17T13:20:20;25.40;99.90
18450;DHT22;9354;50.194;7.690;2023-08-17T13:22:47;25.30;99.90
18450;DHT22;9354;50.194;7.690;2023-08-17T13:25:15;25.20;99.90
18450;DHT22;9354;50.194;7.690;2023-08-17T13:27:42;25.20;99.90
18450;DHT22;9354;50.194;7.690;2023-08-17T13:30:12;25.10;99.90
18450;DHT22;9354;50.194;7.690;2023-08-17T13:32:39;25.10;99.90
18450;DHT22;9354;50.194;7.690;2023-08-17T13:35:07;25.20;99.90
18450;DHT22;9354;50.194;7.690;2023-08-17T13:37:36;25.40;99.90
18450;DHT22;9354;50.194;7.690;2023-08-17T13:40:05;25.80;99.90
18450;DHT22;9354;50.194;7.690;2023-08-17T13:42:32;26.10;99.90
18450;DHT22;9354;50.194;7.690;2023-08-17T13:45:00;26.40;99.90
18450;DHT22;9354;50.194;7.690;2023-08-17T13:47:28;26.50;99.90
18450;DHT22;9354;50.194;7.690;2023-08-17T13:49:56;26.60;99.90
18450;DHT22;9354;50.194;7.690;2023-08-17T13:52:23;26.60;99.90
18450;DHT22;9354;50.194;7.690;2023-08-17T13:54:50;26.40;99.90
18450;DHT22;9354;50.194;7.690;2023-08-17T13:57:18;26.30;99.90
18450;DHT22;9354;50.194;7.690;2023-08-17T13:59:45;26.10;99.90
18450;DHT22;9354;50.194;7.690;2023-08-17T14:02:13;26.00;99.90
18450;DHT22;9354;50.194;7.690;2023-08-17T14:04:41;25.90;99.90
18450;DHT22;9354;50.194;7.690;2023-08-17T14:07:09;25.70;99.90
18450;DHT22;9354;50.194;7.690;2023-08-17T14:09:36;25.60;99.90
18450;DHT22;9354;50.194;7.690;2023-08-17T14:12:04;25.50;99.90
18450;DHT22;9354;50.194;7.690;2023-08-17T14:14:31;25.40;99.90
18450;DHT22;9354;50.194;7.690;2023-08-17T14:16:59;25.30;99.90
18450;DHT22;9354;50.194;7.690;2023-08-17T14:19:26;25.30;99.90
18450;DHT22;9354;50.194;7.690;2023-08-17T14:21:55;25.20;99.90
18450;DHT22;9354;50.194;7.690;2023-08-17T14:24:23;25.30;99.90
18450;DHT22;9354;50.194;7.690;2023-08-17T14:26:50;25.40;99.90
18450;DHT22;9354;50.194;7.690;2023-08-17T14:29:17;25.50;99.90
18450;DHT22;9354;50.194;7.690;2023-08-17T14:31:45;25.80;99.90
18450;DHT22;9354;50.194;7.690;2023-08-17T14:34:12;26.10;99.90
18450;DHT22;9354;50.194;7.690;2023-08-17T14:36:41;26.30;99.90
18450;DHT22;9354;50.194;7.690;2023-08-17T14:39:09;26.60;99.90
18450;DHT22;9354;50.194;7.690;2023-08-17T14:41:37;26.80;99.90
18450;DHT22;9354;50.194;7.690;2023-08-17T14:44:05;26.90;99.90
18450;DHT22;9354;50.194;7.690;2023-08-17T14:46:33;27.00;99.90
18450;DHT22;9354;50.194;7.690;2023-08-17T14:49:00;26.90;99.90
18450;DHT22;9354;50.194;7.690;2023-08-17T14:51:28;26.70;99.90
18450;DHT22;9354;50.194;7.690;2023-08-17T14:53:56;26.70;99.90
18450;DHT22;9354;50.194;7.690;2023-08-17T14:56:25;26.70;99.90
18450;DHT22;9354;50.194;7.690;2023-08-17T14:58:52;26.70;99.90
18450;DHT22;9354;50.194;7.690;2023-08-17T15:01:19;26.80;99.90
18450;DHT22;9354;50.194;7.690;2023-08-17T15:03:47;26.80;99.90
18450;DHT22;9354;50.194;7.690;2023-08-17T15:06:14;26.70;99.90
18450;DHT22;9354;50.194;7.690;2023-08-17T15:08:41;26.60;99.90
18450;DHT22;9354;50.194;7.690;2023-08-17T15:11:09;26.40;99.90
18450;DHT22;9354;50.194;7.690;2023-08-17T15:13:37;26.40;99.90
18450;DHT22;9354;50.194;7.690;2023-08-17T15:16:05;26.20;99.90
18450;DHT22;9354;50.194;7.690;2023-08-17T15:18:33;26.10;99.90
18450;DHT22;9354;50.194;7.690;2023-08-17T15:21:00;26.00;99.90
18450;DHT22;9354;50.194;7.690;2023-08-17T15:23:28;25.80;99.90
18450;DHT22;9354;50.194;7.690;2023-08-17T15:25:55;25.70;99.90
18450;DHT22;9354;50.194;7.690;2023-08-17T15:28:22;25.60;99.90
18450;DHT22;9354;50.194;7.690;2023-08-17T15:31:02;25.60;99.90
18450;DHT22;9354;50.194;7.690;2023-08-17T15:33:30;25.80;99.90
18450;DHT22;9354;50.194;7.690;2023-08-17T15:35:57;25.90;99.90
18450;DHT22;9354;50.194;7.690;2023-08-17T15:38:27;25.90;99.90
18450;DHT22;9354;50.194;7.690;2023-08-17T15:40:54;26.00;99.90
18450;DHT22;9354;50.194;7.690;2023-08-17T15:43:21;26.00;99.90
18450;DHT22;9354;50.194;7.690;2023-08-17T15:45:52;25.90;99.90
18450;DHT22;9354;50.194;7.690;2023-08-17T15:48:20;25.90;99.90
18450;DHT22;9354;50.194;7.690;2023-08-17T15:50:50;25.90;99.90
18450;DHT22;9354;50.194;7.690;2023-08-17T15:53:17;25.90;99.90